Time;durP1;ratioP1;P1;durP2;ratioP2;P2;SDS_P1;SDS_P2;PMS_P1;PMS_P2;Temp;Humidity;BMP_temperature;BMP_pressure;BME280_temperature;BME280_humidity;BME280_pressure;Samples;Min_cycle;Max_cycle;Signal;HPM_P1;HPM_P2
2021/05/12 00:00:30;;;;;;;7.73;1.33;;;17.30;99.90;;;;;;5012713;28;20784;-83
2021/05/12 00:02:58;;;;;;;2.97;0.93;;;17.10;99.90;;;;;;5030439;28;20402;-84
2021/05/12 00:05:26;;;;;;;7.22;1.17;;;17.00;99.90;;;;;;5030763;28;20917;-84
2021/05/12 00:07:54;;;;;;;5.65;1.17;;;17.10;99.90;;;;;;5029480;28;21068;-84
2021/05/12 00:10:22;;;;;;;4.47;1.50;;;17.20;99.90;;;;;;5018450;28;20523;-85
2021/05/12 00:12:51;;;;;;;9.90;1.42;;;17.20;99.90;;;;;;5010411;28;20386;-84
2021/05/12 00:15:22;;;;;;;4.95;1.10;;;17.40;99.90;;;;;;5010262;28;20383;-84
2021/05/12 00:17:51;;;;;;;6.25;1.40;;;17.50;99.90;;;;;;5010067;28;20786;-82
2021/05/12 00:20:26;;;;;;;8.95;1.50;;;17.40;99.90;;;;;;4993607;28;20387;-83
2021/05/12 00:25:24;;;;;;;5.00;1.23;;;17.50;99.90;;;;;;5009962;28;20371;-83
2021/05/12 00:27:53;;;;;;;6.10;1.45;;;17.80;99.90;;;;;;5009818;28;20398;-83
2021/05/12 00:30:22;;;;;;;4.70;1.20;;;17.90;99.90;;;;;;4991477;28;20465;-83
2021/05/12 00:32:50;;;;;;;5.00;1.40;;;17.90;99.90;;;;;;5008896;28;20696;-83
2021/05/12 00:35:17;;;;;;;6.57;1.53;;;18.00;99.90;;;;;;4991913;28;20398;-82
2021/05/12 00:37:44;;;;;;;4.13;1.20;;;18.10;99.90;;;;;;5009821;28;20755;-83
2021/05/12 00:40:13;;;;;;;4.72;1.00;;;18.00;99.90;;;;;;4991098;28;20414;-82
2021/05/12 00:42:41;;;;;;;4.57;1.40;;;18.00;99.90;;;;;;4992022;28;20419;-82
2021/05/12 00:45:11;;;;;;;4.45;1.50;;;18.00;99.90;;;;;;5021886;28;20468;-83
2021/05/12 00:47:38;;;;;;;4.82;1.50;;;18.00;99.90;;;;;;5029500;28;20389;-82
2021/05/12 00:50:07;;;;;;;6.00;1.60;;;18.10;99.90;;;;;;5029497;28;20868;-83
2021/05/12 00:52:34;;;;;;;7.72;1.50;;;18.00;99.90;;;;;;4992701;28;20581;-83
2021/05/12 00:55:01;;;;;;;5.97;1.25;;;18.00;99.90;;;;;;5009409;28;20387;-83
2021/05/12 00:57:28;;;;;;;3.97;1.40;;;18.00;99.90;;;;;;5009519;28;20428;-83
2021/05/12 00:59:55;;;;;;;7.10;1.67;;;18.00;99.90;;;;;;5008673;28;20394;-83
2021/05/12 01:02:22;;;;;;;5.82;1.27;;;18.00;99.90;;;;;;5008145;28;20524;-83
2021/05/12 01:04:50;;;;;;;6.07;1.52;;;18.00;99.90;;;;;;5008620;28;20379;-83
2021/05/12 01:07:17;;;;;;;4.32;1.10;;;18.00;99.90;;;;;;4991273;28;20743;-82
2021/05/12 01:09:44;;;;;;;8.07;1.33;;;18.10;99.90;;;;;;4991407;28;20401;-83
2021/05/12 01:12:11;;;;;;;4.75;1.15;;;18.10;99.90;;;;;;4991603;28;20383;-82
2021/05/12 01:14:38;;;;;;;4.93;1.30;;;18.30;99.90;;;;;;5009247;28;20391;-83
2021/05/12 01:17:05;;;;;;;5.03;1.10;;;18.30;99.90;;;;;;4991207;28;20441;-82
2021/05/12 01:19:34;;;;;;;6.35;1.10;;;18.40;99.90;;;;;;4991522;28;20391;-82
2021/05/12 01:22:01;;;;;;;4.82;0.95;;;18.50;99.90;;;;;;4990938;28;20822;-82
2021/05/12 01:24:28;;;;;;;5.47;1.48;;;18.70;99.90;;;;;;5017301;28;20452;-81
2021/05/12 01:26:55;;;;;;;5.88;1.00;;;18.80;99.90;;;;;;5028563;28;20420;-82
2021/05/12 01:29:22;;;;;;;5.20;0.85;;;18.70;99.90;;;;;;5028844;28;20366;-82
2021/05/12 01:31:49;;;;;;;3.55;0.80;;;18.40;99.90;;;;;;5010803;28;20443;-82
2021/05/12 01:34:19;;;;;;;5.10;1.00;;;18.30;99.90;;;;;;5029152;28;20377;-82
2021/05/12 01:36:47;;;;;;;5.57;0.90;;;18.30;99.90;;;;;;5028052;28;20385;-82
2021/05/12 01:39:15;;;;;;;3.80;1.00;;;18.40;99.90;;;;;;5028415;28;20381;-81
2021/05/12 01:41:42;;;;;;;6.00;1.27;;;18.40;99.90;;;;;;5028713;28;20401;-83
2021/05/12 01:44:10;;;;;;;3.08;0.82;;;18.50;99.90;;;;;;5028687;28;20373;-81
2021/05/12 01:46:46;;;;;;;4.32;0.98;;;18.40;99.90;;;;;;5028821;28;20415;-82
2021/05/12 01:49:14;;;;;;;8.30;1.38;;;18.40;99.90;;;;;;4999600;28;20403;-81
2021/05/12 01:51:41;;;;;;;4.97;0.83;;;18.30;99.90;;;;;;5026851;28;20369;-82
2021/05/12 01:54:10;;;;;;;2.97;0.85;;;18.30;99.90;;;;;;5010988;28;20436;-82
2021/05/12 01:56:38;;;;;;;3.67;0.93;;;18.30;99.90;;;;;;5027140;28;20435;-82
2021/05/12 01:59:07;;;;;;;4.47;0.80;;;18.30;99.90;;;;;;5028765;28;20361;-83
2021/05/12 02:01:34;;;;;;;3.30;0.90;;;18.30;99.90;;;;;;5010750;28;20452;-82
2021/05/12 02:04:08;;;;;;;4.03;0.90;;;18.50;99.90;;;;;;5030185;28;20396;-82
2021/05/12 02:06:36;;;;;;;6.83;1.00;;;18.50;99.90;;;;;;5032582;28;20564;-83
2021/05/12 02:09:07;;;;;;;6.03;1.20;;;18.50;99.90;;;;;;5014550;28;20737;-82
2021/05/12 02:11:35;;;;;;;4.50;1.10;;;18.60;99.90;;;;;;5032482;28;20385;-83
2021/05/12 02:14:03;;;;;;;7.87;1.10;;;18.70;99.90;;;;;;5032138;28;20464;-82
2021/05/12 02:16:30;;;;;;;6.75;1.23;;;18.90;99.90;;;;;;5032233;28;20493;-81
2021/05/12 02:18:56;;;;;;;5.93;1.00;;;19.20;99.90;;;;;;5032311;28;20386;-80
2021/05/12 02:21:23;;;;;;;2.88;0.90;;;19.30;99.90;;;;;;5032122;28;20451;-82
2021/05/12 02:23:50;;;;;;;5.60;1.00;;;19.20;99.90;;;;;;5032565;28;20385;-82
2021/05/12 02:26:17;;;;;;;5.18;1.00;;;19.20;99.90;;;;;;5032151;28;20358;-81
2021/05/12 02:28:44;;;;;;;6.72;1.05;;;19.10;99.90;;;;;;5014071;28;20745;-81
2021/05/12 02:31:11;;;;;;;2.97;0.98;;;19.30;99.90;;;;;;5032183;28;20380;-83
2021/05/12 02:33:38;;;;;;;5.40;1.10;;;19.20;99.90;;;;;;4995112;28;20379;-84
2021/05/12 02:36:06;;;;;;;8.25;1.45;;;19.10;99.90;;;;;;4994191;28;20510;-83
2021/05/12 02:38:33;;;;;;;3.13;1.00;;;18.90;99.90;;;;;;5011150;28;20436;-82
2021/05/12 02:41:00;;;;;;;6.35;1.20;;;18.80;99.90;;;;;;5012217;28;20406;-82
2021/05/12 02:43:27;;;;;;;5.82;0.80;;;18.70;99.90;;;;;;5010490;28;20533;-82
2021/05/12 02:45:53;;;;;;;5.28;1.17;;;18.70;99.90;;;;;;5011881;28;20379;-81
2021/05/12 02:48:20;;;;;;;4.40;1.10;;;18.60;99.90;;;;;;5023382;28;20401;-81
2021/05/12 02:50:47;;;;;;;9.68;1.45;;;18.60;99.90;;;;;;5012681;28;20389;-82
2021/05/12 02:53:14;;;;;;;5.55;1.15;;;18.60;99.90;;;;;;5031700;28;20718;-82
2021/05/12 02:55:42;;;;;;;6.10;1.30;;;18.60;99.90;;;;;;5031663;28;20369;-82
2021/05/12 02:58:09;;;;;;;7.63;0.93;;;18.70;99.90;;;;;;5031508;28;20896;-82
2021/05/12 03:00:39;;;;;;;6.82;1.30;;;18.70;99.90;;;;;;5031621;28;20472;-81
2021/05/12 03:03:08;;;;;;;5.60;1.17;;;18.70;99.90;;;;;;5031479;28;20405;-82
2021/05/12 03:05:36;;;;;;;5.55;0.85;;;18.80;99.90;;;;;;5032063;28;20370;-83
2021/05/12 03:08:07;;;;;;;3.78;0.75;;;18.80;99.90;;;;;;5012796;28;20430;-80
2021/05/12 03:10:37;;;;;;;4.47;0.95;;;18.90;99.90;;;;;;5009855;28;20387;-81
2021/05/12 03:13:06;;;;;;;6.78;1.55;;;18.90;99.90;;;;;;4999029;28;20438;-83
2021/05/12 03:15:34;;;;;;;6.45;1.10;;;19.00;99.90;;;;;;4995638;28;20465;-82
2021/05/12 03:18:02;;;;;;;6.10;0.98;;;19.10;99.90;;;;;;5028896;28;20394;-83
2021/05/12 03:20:29;;;;;;;6.30;1.10;;;19.20;99.90;;;;;;4993951;28;20435;-82
2021/05/12 03:22:57;;;;;;;5.15;0.80;;;19.20;99.90;;;;;;5014766;28;20411;-81
2021/05/12 03:25:25;;;;;;;6.63;0.97;;;19.40;99.90;;;;;;5025720;28;20399;-82
2021/05/12 03:27:53;;;;;;;2.90;0.85;;;19.20;99.90;;;;;;5021930;28;20390;-81
2021/05/12 03:30:34;;;;;;;4.78;1.15;;;19.30;99.90;;;;;;5015597;28;20750;-81
2021/05/12 03:33:03;;;;;;;6.95;1.52;;;19.30;99.90;;;;;;5019721;28;20435;-82
2021/05/12 03:35:31;;;;;;;4.07;0.90;;;19.30;99.90;;;;;;5031181;28;20382;-82
2021/05/12 03:37:58;;;;;;;3.83;1.00;;;19.30;99.90;;;;;;5012822;28;20467;-82
2021/05/12 03:40:28;;;;;;;4.97;1.13;;;19.10;99.90;;;;;;5030644;28;20377;-82
2021/05/12 03:42:59;;;;;;;5.00;1.40;;;19.10;99.90;;;;;;5011711;28;20409;-83
2021/05/12 03:45:27;;;;;;;5.10;1.10;;;18.90;99.90;;;;;;5011275;28;20378;-81
2021/05/12 03:47:54;;;;;;;3.10;0.90;;;18.90;99.90;;;;;;5030648;28;20480;-81
2021/05/12 03:50:23;;;;;;;4.60;1.20;;;18.90;99.90;;;;;;5028930;28;20428;-82
2021/05/12 03:52:51;;;;;;;5.45;1.10;;;19.00;99.90;;;;;;5012602;28;20849;-83
2021/05/12 03:55:18;;;;;;;4.73;1.30;;;19.10;99.90;;;;;;5029014;28;20385;-83
2021/05/12 03:57:45;;;;;;;3.60;0.80;;;19.30;99.90;;;;;;5020245;28;20746;-83
2021/05/12 04:00:14;;;;;;;3.95;1.00;;;19.40;99.90;;;;;;5028122;28;20409;-82
2021/05/12 04:02:42;;;;;;;6.53;1.48;;;19.60;99.90;;;;;;5026615;28;20761;-82
2021/05/12 04:05:10;;;;;;;9.02;1.58;;;19.70;99.90;;;;;;5030651;28;20456;-82
2021/05/12 04:07:37;;;;;;;5.82;1.30;;;19.80;99.90;;;;;;4994322;28;20391;-82
2021/05/12 04:10:06;;;;;;;6.57;1.52;;;19.70;99.90;;;;;;5010381;28;20728;-82
2021/05/12 04:12:33;;;;;;;3.35;1.02;;;19.60;99.90;;;;;;4992545;28;20437;-82
2021/05/12 04:15:00;;;;;;;5.50;1.00;;;19.40;99.90;;;;;;5009339;28;20406;-82
2021/05/12 04:17:28;;;;;;;8.00;1.23;;;19.30;99.90;;;;;;5010297;28;20426;-81
2021/05/12 04:19:55;;;;;;;7.05;1.23;;;19.40;99.90;;;;;;5010173;28;20371;-82
2021/05/12 04:22:22;;;;;;;8.18;1.58;;;19.40;99.90;;;;;;5000619;28;20409;-83
2021/05/12 04:24:50;;;;;;;8.52;1.50;;;19.20;99.90;;;;;;5011147;28;20400;-82
2021/05/12 04:27:18;;;;;;;8.30;1.50;;;19.10;99.90;;;;;;5011375;28;20591;-82
2021/05/12 04:29:46;;;;;;;8.40;1.63;;;18.80;99.90;;;;;;5011951;28;20741;-82
2021/05/12 04:32:14;;;;;;;5.85;1.17;;;18.80;99.90;;;;;;5009544;28;20840;-83
2021/05/12 04:34:41;;;;;;;7.15;1.20;;;18.70;99.90;;;;;;5010540;28;20843;-82
2021/05/12 04:37:08;;;;;;;7.65;1.55;;;18.60;99.90;;;;;;5010197;28;20378;-83
2021/05/12 04:39:35;;;;;;;9.38;1.42;;;18.70;99.90;;;;;;5014069;28;20369;-83
2021/05/12 04:42:02;;;;;;;5.60;1.60;;;18.70;99.90;;;;;;5015855;28;20454;-82
2021/05/12 04:44:29;;;;;;;6.13;1.38;;;18.80;99.90;;;;;;4992168;28;20391;-82
2021/05/12 04:46:56;;;;;;;7.03;1.40;;;18.80;99.90;;;;;;5009219;28;20470;-82
2021/05/12 04:49:23;;;;;;;7.15;1.48;;;18.80;99.90;;;;;;5009825;28;20375;-84
2021/05/12 04:51:50;;;;;;;8.23;1.55;;;18.80;99.90;;;;;;5009551;28;20422;-82
2021/05/12 04:54:17;;;;;;;9.38;1.55;;;18.90;99.90;;;;;;5028664;28;20439;-82
2021/05/12 04:56:44;;;;;;;8.85;1.40;;;18.80;99.90;;;;;;5029311;28;20881;-83
2021/05/12 04:59:11;;;;;;;7.80;1.63;;;18.70;99.90;;;;;;5011819;28;20481;-83
2021/05/12 05:01:38;;;;;;;7.28;1.50;;;18.80;99.90;;;;;;5009651;28;20490;-82
2021/05/12 05:04:05;;;;;;;5.77;1.47;;;18.90;99.90;;;;;;5009940;28;20379;-83
2021/05/12 05:06:34;;;;;;;5.35;1.40;;;19.00;99.90;;;;;;5009813;28;20855;-83
2021/05/12 05:09:01;;;;;;;6.88;1.40;;;19.00;99.90;;;;;;5009791;28;20391;-82
2021/05/12 05:11:28;;;;;;;7.00;1.60;;;19.00;99.90;;;;;;4991706;28;20453;-83
2021/05/12 05:13:55;;;;;;;5.82;1.20;;;18.80;99.90;;;;;;5009716;28;20379;-83
2021/05/12 05:16:22;;;;;;;8.10;1.35;;;18.70;99.90;;;;;;4991316;28;20461;-82
2021/05/12 05:18:51;;;;;;;9.52;1.58;;;18.70;99.90;;;;;;5009908;28;20382;-83
2021/05/12 05:21:18;;;;;;;6.40;1.40;;;18.60;99.90;;;;;;5009244;28;20398;-82
2021/05/12 05:23:45;;;;;;;8.63;1.60;;;18.60;99.90;;;;;;5010549;28;20431;-83
2021/05/12 05:26:12;;;;;;;7.60;1.52;;;18.60;99.90;;;;;;5025140;28;20373;-82
2021/05/12 05:28:39;;;;;;;8.52;1.50;;;18.60;99.90;;;;;;5027611;28;20397;-83
2021/05/12 05:31:06;;;;;;;9.65;1.55;;;18.70;99.90;;;;;;5015298;28;20442;-82
2021/05/12 05:33:33;;;;;;;7.40;1.40;;;18.70;99.90;;;;;;5028141;28;20373;-82
2021/05/12 05:36:00;;;;;;;6.35;1.48;;;18.60;99.90;;;;;;5011566;28;20389;-83
2021/05/12 05:38:27;;;;;;;6.35;1.40;;;18.50;99.90;;;;;;5011788;28;20373;-83
2021/05/12 05:40:54;;;;;;;7.18;1.42;;;18.50;99.90;;;;;;5031258;28;20464;-82
2021/05/12 05:43:21;;;;;;;6.23;1.20;;;18.40;99.90;;;;;;5031737;28;20381;-82
2021/05/12 05:45:48;;;;;;;5.37;1.27;;;18.40;99.90;;;;;;5026881;28;20383;-82
2021/05/12 05:48:15;;;;;;;8.00;1.55;;;18.30;99.90;;;;;;5015857;28;20394;-82
2021/05/12 05:50:42;;;;;;;6.25;1.38;;;18.30;99.90;;;;;;5014416;28;20375;-80
2021/05/12 05:53:09;;;;;;;8.27;1.48;;;18.30;99.90;;;;;;5029559;28;20947;-82
2021/05/12 05:55:36;;;;;;;8.30;1.58;;;18.30;99.90;;;;;;5028094;28;20523;-82
2021/05/12 05:58:03;;;;;;;7.88;1.35;;;18.30;99.90;;;;;;5031240;28;20385;-82
2021/05/12 06:00:30;;;;;;;8.95;1.52;;;18.30;99.90;;;;;;5027557;28;20382;-82
2021/05/12 06:02:57;;;;;;;7.82;1.48;;;18.20;99.90;;;;;;5011828;28;20431;-82
2021/05/12 06:05:24;;;;;;;9.25;1.35;;;18.00;99.90;;;;;;4996470;28;20437;-82
2021/05/12 06:07:51;;;;;;;10.20;1.60;;;17.90;99.90;;;;;;4994460;28;20389;-82
2021/05/12 06:10:18;;;;;;;8.15;1.80;;;17.80;99.90;;;;;;5014012;28;20845;-83
2021/05/12 06:12:45;;;;;;;9.60;1.77;;;17.70;99.90;;;;;;5010507;28;20380;-82
2021/05/12 06:15:19;;;;;;;11.48;1.65;;;17.60;99.90;;;;;;5009539;28;20418;-82
2021/05/12 06:17:50;;;;;;;8.77;1.77;;;17.60;99.90;;;;;;5009471;28;20477;-83
2021/05/12 06:20:17;;;;;;;7.63;1.30;;;17.60;99.90;;;;;;5010046;28;20852;-83
2021/05/12 06:22:44;;;;;;;5.93;1.10;;;17.60;99.90;;;;;;5009976;28;20403;-82
2021/05/12 06:25:13;;;;;;;7.82;1.77;;;17.50;99.90;;;;;;5011203;28;20449;-83
2021/05/12 06:27:40;;;;;;;7.57;1.58;;;17.40;99.90;;;;;;5029285;28;20468;-83
2021/05/12 06:30:08;;;;;;;8.25;1.25;;;17.40;99.90;;;;;;5002567;28;20383;-83
2021/05/12 06:32:35;;;;;;;8.98;1.60;;;17.40;99.90;;;;;;5009610;28;20474;-83
2021/05/12 06:35:02;;;;;;;8.05;1.50;;;17.30;99.90;;;;;;5010395;28;20437;-83
2021/05/12 06:37:29;;;;;;;5.97;1.35;;;17.20;99.90;;;;;;4991538;28;20414;-82
2021/05/12 06:39:56;;;;;;;8.68;1.63;;;17.20;99.90;;;;;;4991929;28;20428;-82
2021/05/12 06:42:23;;;;;;;9.40;1.88;;;17.20;99.90;;;;;;5010081;28;20411;-83
2021/05/12 06:44:50;;;;;;;8.27;1.50;;;17.20;99.90;;;;;;4991329;28;20441;-82
2021/05/12 06:47:17;;;;;;;9.40;1.30;;;17.10;99.90;;;;;;4992653;28;21024;-82
2021/05/12 06:49:44;;;;;;;8.23;1.90;;;17.10;99.90;;;;;;5019262;28;20420;-83
2021/05/12 06:52:11;;;;;;;7.77;1.70;;;17.00;99.90;;;;;;5005361;28;20812;-82
2021/05/12 06:54:38;;;;;;;7.13;1.58;;;16.90;99.90;;;;;;5013353;28;20390;-82
2021/05/12 06:57:06;;;;;;;12.13;1.90;;;16.90;99.90;;;;;;4995293;28;20398;-82
2021/05/12 06:59:33;;;;;;;9.97;1.70;;;16.80;99.90;;;;;;5001726;28;20770;-82
2021/05/12 07:02:00;;;;;;;7.40;1.20;;;16.80;99.90;;;;;;4993572;28;20506;-82
2021/05/12 07:04:27;;;;;;;6.17;1.70;;;16.80;99.90;;;;;;5011957;28;20464;-82
2021/05/12 07:06:54;;;;;;;7.90;1.60;;;16.70;99.90;;;;;;5016712;28;20375;-82
2021/05/12 07:09:21;;;;;;;7.47;1.63;;;16.60;99.90;;;;;;5013865;28;20474;-82
2021/05/12 07:11:48;;;;;;;7.88;1.77;;;16.60;99.90;;;;;;5020596;28;20418;-83
2021/05/12 07:14:14;;;;;;;7.95;1.70;;;16.50;99.90;;;;;;5027852;28;20394;-82
2021/05/12 07:16:41;;;;;;;10.45;1.67;;;16.50;99.90;;;;;;5031641;28;20443;-82
2021/05/12 07:19:08;;;;;;;7.80;1.75;;;16.40;99.90;;;;;;5031428;28;20389;-81
2021/05/12 07:21:35;;;;;;;11.68;1.95;;;16.40;99.90;;;;;;5006225;28;20920;-82
2021/05/12 07:24:03;;;;;;;7.15;1.63;;;16.30;99.90;;;;;;5023176;28;20378;-83
2021/05/12 07:26:30;;;;;;;8.90;1.70;;;16.20;99.90;;;;;;4993599;28;20367;-83
2021/05/12 07:28:57;;;;;;;8.83;1.97;;;16.20;99.90;;;;;;5026219;28;20397;-83
2021/05/12 07:31:25;;;;;;;9.73;1.80;;;16.10;99.90;;;;;;5004628;28;20815;-83
2021/05/12 07:33:52;;;;;;;5.53;1.35;;;16.10;99.90;;;;;;5004982;28;20393;-84
2021/05/12 07:36:19;;;;;;;6.40;1.30;;;16.00;99.90;;;;;;5025328;28;20425;-84
2021/05/12 07:38:46;;;;;;;6.10;1.58;;;16.00;99.90;;;;;;5030604;28;20472;-84
2021/05/12 07:41:13;;;;;;;10.82;1.73;;;16.00;99.90;;;;;;5011340;28;20897;-83
2021/05/12 07:43:40;;;;;;;10.52;1.85;;;16.00;99.90;;;;;;5030325;28;20447;-84
2021/05/12 07:46:07;;;;;;;8.15;1.70;;;16.00;99.90;;;;;;5028161;28;20800;-84
2021/05/12 07:48:34;;;;;;;11.63;2.03;;;16.00;99.90;;;;;;5010399;28;20396;-83
2021/05/12 07:51:01;;;;;;;9.55;1.98;;;16.10;99.90;;;;;;5005391;28;20433;-84
2021/05/12 07:53:28;;;;;;;11.27;2.17;;;16.10;99.90;;;;;;4999225;28;20757;-84
2021/05/12 07:55:56;;;;;;;11.52;2.38;;;16.10;99.90;;;;;;5015788;28;20387;-84
2021/05/12 07:58:23;;;;;;;8.63;2.10;;;16.10;99.90;;;;;;5012169;28;20387;-83
2021/05/12 08:00:51;;;;;;;6.83;1.97;;;16.10;99.90;;;;;;5009316;28;20410;-83
2021/05/12 08:03:18;;;;;;;10.50;2.00;;;16.10;99.90;;;;;;4992240;28;20411;-83
2021/05/12 08:05:47;;;;;;;11.02;2.30;;;16.10;99.90;;;;;;5011396;28;20462;-82
2021/05/12 08:08:16;;;;;;;7.78;2.20;;;16.10;99.90;;;;;;5003199;28;20488;-83
2021/05/12 08:10:43;;;;;;;13.23;2.10;;;16.10;99.90;;;;;;5006395;28;20481;-85
2021/05/12 08:13:10;;;;;;;8.32;2.45;;;16.00;99.90;;;;;;5018350;28;20392;-83
2021/05/12 08:15:37;;;;;;;9.18;2.30;;;16.00;99.90;;;;;;5010908;28;20398;-84
2021/05/12 08:18:04;;;;;;;9.25;1.70;;;15.90;99.90;;;;;;5002630;28;20404;-83
2021/05/12 08:20:31;;;;;;;15.07;2.45;;;15.90;99.90;;;;;;5027232;28;20421;-83
2021/05/12 08:22:58;;;;;;;9.73;2.83;;;15.90;99.90;;;;;;5007991;28;20401;-82
2021/05/12 08:25:25;;;;;;;7.90;2.70;;;16.00;99.90;;;;;;5017269;28;20402;-82
2021/05/12 08:27:54;;;;;;;12.88;2.92;;;16.00;99.90;;;;;;4998863;28;20403;-83
2021/05/12 08:30:25;;;;;;;9.60;2.30;;;16.00;99.90;;;;;;5024641;28;20394;-82
2021/05/12 08:32:55;;;;;;;11.15;2.13;;;16.10;99.90;;;;;;5017153;28;20398;-82
2021/05/12 08:35:22;;;;;;;13.20;2.03;;;16.10;99.90;;;;;;5021176;28;20392;-82
2021/05/12 08:37:52;;;;;;;11.82;2.03;;;16.20;99.90;;;;;;5027252;28;20386;-82
2021/05/12 08:40:21;;;;;;;9.85;2.10;;;16.20;99.90;;;;;;4999015;28;20420;-82
2021/05/12 08:42:53;;;;;;;7.57;1.95;;;16.10;99.90;;;;;;5025488;28;20922;-84
2021/05/12 08:45:21;;;;;;;11.65;1.98;;;16.10;99.90;;;;;;5009813;28;20457;-83
2021/05/12 08:47:54;;;;;;;9.10;1.88;;;16.00;99.90;;;;;;5016584;28;20447;-83
2021/05/12 08:50:23;;;;;;;6.65;1.80;;;16.00;99.90;;;;;;5029687;28;20384;-83
2021/05/12 08:52:50;;;;;;;15.15;1.90;;;16.10;99.90;;;;;;5025222;28;20738;-83
2021/05/12 08:55:19;;;;;;;10.18;1.70;;;16.10;99.90;;;;;;5022004;28;20572;-83
2021/05/12 08:57:46;;;;;;;7.93;2.00;;;16.20;99.90;;;;;;5023207;28;20383;-81
2021/05/12 09:00:13;;;;;;;6.90;1.67;;;16.20;99.90;;;;;;5026548;28;20489;-83
2021/05/12 09:02:40;;;;;;;11.65;2.20;;;16.20;99.90;;;;;;5015308;28;20885;-83
2021/05/12 09:05:09;;;;;;;10.52;2.00;;;16.30;99.90;;;;;;5016825;28;20456;-83
2021/05/12 09:07:36;;;;;;;8.13;2.10;;;16.30;99.90;;;;;;5018913;28;20540;-83
2021/05/12 09:10:04;;;;;;;12.23;1.93;;;16.40;99.90;;;;;;5009811;28;20471;-83
2021/05/12 09:12:45;;;;;;;10.80;1.90;;;16.40;99.90;;;;;;5010284;28;20613;-84
2021/05/12 09:15:15;;;;;;;11.30;2.20;;;16.40;99.90;;;;;;5009586;28;20394;-82
2021/05/12 09:17:44;;;;;;;8.73;2.20;;;16.40;99.90;;;;;;5017319;28;20754;-82
2021/05/12 09:20:29;;;;;;;13.47;2.20;;;16.40;99.90;;;;;;5025520;28;20394;-81
2021/05/12 09:23:02;;;;;;;11.50;2.13;;;16.50;99.90;;;;;;5015545;28;20754;-82
2021/05/12 09:25:31;;;;;;;12.57;2.75;;;16.40;99.90;;;;;;5021982;28;20391;-85
2021/05/12 09:28:14;;;;;;;8.98;2.50;;;16.40;99.90;;;;;;5027330;28;21156;-84
2021/05/12 09:30:46;;;;;;;9.43;2.20;;;16.40;99.90;;;;;;5017436;28;20377;-85
2021/05/12 09:33:36;;;;;;;9.87;2.40;;;16.40;99.90;;;;;;5021536;28;20877;-86
2021/05/12 09:36:04;;;;;;;7.45;2.80;;;16.40;99.90;;;;;;5010274;28;20994;-85
2021/05/12 09:38:33;;;;;;;10.13;3.47;;;16.40;99.90;;;;;;4992445;28;20391;-84
2021/05/12 09:41:13;;;;;;;9.13;2.37;;;16.40;99.90;;;;;;4999646;28;20831;-85
2021/05/12 09:43:49;;;;;;;8.65;2.50;;;16.40;99.90;;;;;;5001921;28;20482;-85
2021/05/12 09:46:16;;;;;;;10.90;3.17;;;16.40;99.90;;;;;;5005291;28;20406;-85
2021/05/12 09:49:07;;;;;;;10.80;2.83;;;16.40;99.90;;;;;;5013405;28;20393;-84
2021/05/12 09:51:39;;;;;;;11.68;2.42;;;16.40;99.90;;;;;;5011465;28;20381;-85
2021/05/12 09:54:19;;;;;;;6.05;1.98;;;16.40;99.90;;;;;;5020007;28;20842;-85
2021/05/12 09:56:57;;;;;;;8.68;2.10;;;16.50;99.90;;;;;;4991766;28;20905;-85
2021/05/12 09:59:29;;;;;;;7.87;1.87;;;16.40;99.90;;;;;;5009679;28;20379;-85
2021/05/12 10:01:58;;;;;;;8.02;2.10;;;16.50;99.90;;;;;;5008824;28;20395;-85
2021/05/12 10:04:28;;;;;;;10.67;2.30;;;16.40;99.90;;;;;;5009744;28;20408;-86
2021/05/12 10:06:57;;;;;;;7.03;2.03;;;16.40;99.90;;;;;;4992195;28;20407;-85
2021/05/12 10:09:26;;;;;;;13.50;2.58;;;16.40;99.90;;;;;;4991683;28;20398;-85
2021/05/12 10:12:02;;;;;;;9.55;2.55;;;16.50;99.90;;;;;;4991780;28;20375;-85
2021/05/12 10:14:34;;;;;;;14.02;2.33;;;16.40;99.90;;;;;;5024842;28;20884;-85
2021/05/12 10:17:03;;;;;;;10.80;2.42;;;16.30;99.90;;;;;;4991097;28;20392;-84
2021/05/12 10:19:31;;;;;;;10.87;2.20;;;16.30;99.90;;;;;;4991631;28;20747;-85
2021/05/12 10:22:02;;;;;;;10.75;2.13;;;16.20;99.90;;;;;;5024179;28;20505;-86
2021/05/12 10:24:34;;;;;;;9.02;2.28;;;16.20;99.90;;;;;;5012233;28;20393;-85
2021/05/12 10:27:03;;;;;;;8.45;2.15;;;16.20;99.90;;;;;;5014962;28;20389;-85
2021/05/12 10:29:31;;;;;;;9.30;1.98;;;16.10;99.90;;;;;;5020828;28;20468;-85
2021/05/12 10:31:58;;;;;;;10.35;2.28;;;16.10;99.90;;;;;;5013380;28;20475;-85
2021/05/12 10:34:39;;;;;;;10.20;2.45;;;16.10;99.90;;;;;;5030928;28;20468;-85
2021/05/12 10:37:22;;;;;;;8.00;2.25;;;16.00;99.90;;;;;;5027124;28;20412;-85
2021/05/12 10:40:04;;;;;;;9.13;2.30;;;15.90;99.90;;;;;;5027615;28;20805;-85
2021/05/12 10:43:03;;;;;;;9.60;2.10;;;15.90;99.90;;;;;;5017369;28;20847;-82
2021/05/12 10:45:38;;;;;;;9.87;2.27;;;15.80;99.90;;;;;;5002964;28;20396;-83
2021/05/12 10:48:06;;;;;;;10.18;2.33;;;15.80;99.90;;;;;;5017400;28;20941;-84
2021/05/12 10:50:50;;;;;;;9.63;2.28;;;15.80;99.90;;;;;;5008707;28;21205;-86
2021/05/12 10:53:22;;;;;;;9.30;1.98;;;15.90;99.90;;;;;;5028905;28;20396;-86
2021/05/12 10:56:10;;;;;;;7.50;2.10;;;15.90;99.90;;;;;;5028707;28;20405;-85
2021/05/12 10:58:40;;;;;;;13.43;2.17;;;16.00;99.90;;;;;;5024585;28;20411;-86
2021/05/12 11:01:14;;;;;;;11.43;2.60;;;16.00;99.90;;;;;;5027890;28;20393;-84
2021/05/12 11:03:50;;;;;;;12.35;2.28;;;16.00;99.90;;;;;;5027549;28;20405;-87
2021/05/12 11:06:39;;;;;;;8.35;2.20;;;16.00;99.90;;;;;;5026267;28;20572;-86
2021/05/12 11:09:11;;;;;;;8.52;2.10;;;16.10;99.90;;;;;;5032019;28;20519;-87
2021/05/12 11:11:50;;;;;;;9.57;2.25;;;16.00;99.90;;;;;;5025208;28;20411;-84
2021/05/12 11:14:34;;;;;;;11.77;2.63;;;16.00;99.90;;;;;;5005881;28;20394;-85
2021/05/12 11:17:03;;;;;;;11.88;2.63;;;16.00;99.90;;;;;;5026300;28;20439;-85
2021/05/12 11:19:54;;;;;;;9.75;2.50;;;16.00;99.90;;;;;;5007438;28;20407;-84
2021/05/12 11:33:28;;;;;;;13.25;3.15;;;15.90;99.90;;;;;;5032964;28;20401;-89
2021/05/12 11:36:07;;;;;;;11.30;2.28;;;15.70;99.90;;;;;;5010845;28;20397;-89
2021/05/12 11:38:36;;;;;;;11.98;2.63;;;15.70;99.90;;;;;;5030293;28;20868;-86
2021/05/12 11:41:09;;;;;;;11.90;2.65;;;15.70;99.90;;;;;;5018520;28;20401;-90
2021/05/12 11:44:00;;;;;;;13.07;2.60;;;15.70;99.90;;;;;;5014544;28;20409;-89
2021/05/12 11:46:31;;;;;;;12.55;3.30;;;15.70;99.90;;;;;;5008537;28;20812;-90
2021/05/12 11:49:03;;;;;;;9.73;2.42;;;15.60;99.90;;;;;;5015751;28;20389;-91
2021/05/12 11:51:34;;;;;;;10.43;2.72;;;15.60;99.90;;;;;;5033410;28;20384;-90
2021/05/12 11:54:03;;;;;;;15.00;3.10;;;15.60;99.90;;;;;;5034185;28;20396;-89
2021/05/12 11:56:30;;;;;;;11.80;3.28;;;15.60;99.90;;;;;;5033696;28;20389;-91
2021/05/12 11:59:01;;;;;;;11.93;3.13;;;15.60;99.90;;;;;;5033946;28;20404;-90
2021/05/12 12:01:30;;;;;;;12.93;3.15;;;15.60;99.90;;;;;;5032955;28;20409;-88
2021/05/12 12:06:42;;;;;;;16.23;3.75;;;15.50;99.90;;;;;;5034935;28;20386;-92
2021/05/12 12:09:10;;;;;;;10.82;3.28;;;15.40;99.90;;;;;;5034294;28;20386;-92
2021/05/12 12:11:37;;;;;;;10.43;3.47;;;15.30;99.90;;;;;;5028513;28;20404;-86
2021/05/12 12:14:08;;;;;;;13.30;4.40;;;15.30;99.90;;;;;;5032217;28;20489;-88
2021/05/12 12:16:40;;;;;;;13.83;4.27;;;15.30;99.90;;;;;;5026411;28;20688;-89
2021/05/12 12:19:16;;;;;;;8.00;2.67;;;15.30;99.90;;;;;;5012135;28;20959;-88
2021/05/12 12:21:52;;;;;;;9.65;2.30;;;15.30;99.90;;;;;;5029852;28;20397;-89
2021/05/12 12:24:22;;;;;;;11.95;2.33;;;15.20;99.90;;;;;;5022945;28;20401;-87
2021/05/12 12:26:54;;;;;;;9.60;2.28;;;15.20;99.90;;;;;;5027171;28;20797;-88
2021/05/12 12:29:32;;;;;;;9.32;2.20;;;15.20;99.90;;;;;;5025177;28;20393;-87
2021/05/12 12:32:03;;;;;;;9.02;2.20;;;15.20;99.90;;;;;;5012400;28;20404;-86
2021/05/12 12:34:32;;;;;;;9.23;2.50;;;15.20;99.90;;;;;;5008697;28;20493;-85
2021/05/12 12:37:04;;;;;;;7.78;2.40;;;15.20;99.90;;;;;;5007704;28;20393;-87
2021/05/12 12:39:44;;;;;;;7.65;2.53;;;15.20;99.90;;;;;;4998868;28;20409;-86
2021/05/12 12:42:15;;;;;;;6.73;2.23;;;15.20;99.90;;;;;;5022779;28;20432;-87
2021/05/12 12:44:43;;;;;;;8.63;2.22;;;15.20;99.90;;;;;;5026493;28;20389;-88
2021/05/12 12:47:16;;;;;;;7.25;2.25;;;15.10;99.90;;;;;;5013223;28;20398;-87
2021/05/12 12:50:00;;;;;;;7.22;1.95;;;14.90;99.90;;;;;;5031359;28;20385;-87
2021/05/12 12:52:39;;;;;;;8.30;2.25;;;14.80;99.90;;;;;;5031008;28;20464;-86
2021/05/12 12:55:15;;;;;;;10.50;2.30;;;14.70;99.90;;;;;;5029297;28;20389;-88
2021/05/12 12:57:53;;;;;;;8.80;2.27;;;14.70;99.90;;;;;;5003347;28;20414;-86
2021/05/12 13:00:36;;;;;;;4.95;1.60;;;14.70;99.90;;;;;;5029831;28;20955;-87
2021/05/12 13:03:23;;;;;;;7.05;1.92;;;14.70;99.90;;;;;;5016917;28;20775;-87
2021/05/12 13:06:00;;;;;;;7.72;2.03;;;14.60;99.90;;;;;;5029848;28;20389;-87
2021/05/12 13:08:39;;;;;;;7.78;2.20;;;14.60;99.90;;;;;;5017252;28;20442;-87
2021/05/12 13:11:06;;;;;;;10.98;2.35;;;14.50;99.90;;;;;;5009074;28;20480;-87
2021/05/12 13:14:03;;;;;;;7.18;2.20;;;14.50;99.90;;;;;;5013009;28;20427;-87